createdAt,value
2018-12-18T00:02:28.864Z,55.30
2018-12-18T00:12:34.927Z,58.43
2018-12-18T00:22:39.128Z,57.13
2018-12-18T00:32:43.211Z,58.83
2018-12-18T00:42:47.341Z,59.33
2018-12-18T00:52:51.411Z,59.27
2018-12-18T01:02:55.506Z,61.37
2018-12-18T01:12:59.821Z,57.17
2018-12-18T01:23:03.982Z,57.10
2018-12-18T01:33:08.036Z,60.40
2018-12-18T01:43:12.175Z,57.70
2018-12-18T01:53:16.257Z,52.90
2018-12-18T02:03:20.325Z,52.10
2018-12-18T02:13:24.441Z,50.13
2018-12-18T02:23:28.507Z,48.50
2018-12-18T02:33:32.590Z,45.37
2018-12-18T02:43:36.925Z,43.70
2018-12-18T02:53:41.454Z,39.13
2018-12-18T03:03:45.476Z,39.50
2018-12-18T03:13:49.876Z,41.07
2018-12-18T03:23:54.146Z,40.67
2018-12-18T03:33:59.380Z,43.40
2018-12-18T03:44:03.460Z,41.37
2018-12-18T03:54:07.506Z,36.57
2018-12-18T04:04:11.605Z,36.50
2018-12-18T04:14:15.686Z,37.27
2018-12-18T04:24:19.728Z,36.27
2018-12-18T04:34:23.795Z,36.67
2018-12-18T04:44:27.888Z,37.97
2018-12-18T04:54:31.977Z,37.87
2018-12-18T05:04:36.097Z,38.57
2018-12-18T05:14:41.149Z,36.43
2018-12-18T05:24:45.263Z,39.30
2018-12-18T05:34:49.384Z,37.73
2018-12-18T05:44:53.538Z,33.43
2018-12-18T05:54:58.603Z,33.63
2018-12-18T06:05:03.319Z,35.53
2018-12-18T06:15:07.865Z,33.43
2018-12-18T06:25:12.446Z,32.53
2018-12-18T06:35:16.517Z,31.53
2018-12-18T06:45:20.652Z,29.70
2018-12-18T06:55:25.769Z,32.97
2018-12-18T07:05:30.119Z,34.13
2018-12-18T07:15:34.458Z,35.07
2018-12-18T07:25:38.758Z,33.83
2018-12-18T07:35:42.935Z,30.27
2018-12-18T07:45:48.085Z,27.23
2018-12-18T07:55:52.247Z,23.73
2018-12-18T08:05:56.479Z,24.57
2018-12-18T08:16:00.711Z,22.17
2018-12-18T08:26:05.164Z,35.57
2018-12-18T08:36:09.554Z,35.50
2018-12-18T08:46:13.770Z,36.13
2018-12-18T08:56:18.994Z,41.90
2018-12-18T09:06:23.198Z,44.73
2018-12-18T09:16:32.648Z,43.13
2018-12-18T09:26:37.032Z,51.27
2018-12-18T09:36:41.386Z,53.83
2018-12-18T09:46:45.733Z,47.57
2018-12-18T09:56:51.087Z,55.27
2018-12-18T10:06:55.703Z,56.17
2018-12-18T10:16:59.961Z,54.77
2018-12-18T10:27:04.357Z,56.30
2018-12-18T10:37:08.675Z,49.37
2018-12-18T10:47:12.879Z,43.20
2018-12-18T10:57:17.298Z,47.00
2018-12-18T11:07:21.545Z,46.30
2018-12-18T11:17:25.695Z,46.30
2018-12-18T11:27:29.829Z,45.77
2018-12-18T11:37:34.089Z,42.83
2018-12-18T11:47:38.405Z,37.43
2018-12-18T11:57:42.652Z,38.53
2018-12-18T12:07:46.850Z,35.17
2018-12-18T12:17:51.434Z,57.73
2018-12-18T12:28:00.940Z,59.57
2018-12-18T12:38:05.115Z,59.93
2018-12-18T12:48:12.437Z,58.17
2018-12-18T12:58:17.073Z,58.43
2018-12-18T13:08:21.256Z,58.17
2018-12-18T13:18:25.573Z,57.93
2018-12-18T13:28:29.791Z,58.40
2018-12-18T13:38:33.950Z,60.00
2018-12-18T13:48:38.342Z,59.53
2018-12-18T13:58:42.673Z,58.70
2018-12-18T14:08:47.187Z,61.00
2018-12-18T14:18:51.298Z,68.53
2018-12-18T14:28:56.525Z,75.10
2018-12-18T14:39:00.768Z,77.47
2018-12-18T14:49:04.981Z,80.00
2018-12-18T14:59:09.198Z,77.83
2018-12-18T15:09:13.487Z,76.87
2018-12-18T15:19:18.841Z,73.60
2018-12-18T15:29:23.035Z,73.77
2018-12-18T15:39:27.353Z,73.63
2018-12-18T15:49:31.509Z,67.77
2018-12-18T15:59:35.667Z,68.10
2018-12-18T16:09:40.062Z,66.63
2018-12-18T16:19:44.483Z,61.97
2018-12-18T16:29:48.950Z,58.77
2018-12-18T16:39:53.589Z,58.60
2018-12-18T16:49:57.857Z,59.53
2018-12-18T17:00:01.999Z,60.77
2018-12-18T17:10:06.503Z,64.17
2018-12-18T17:20:10.692Z,67.97
2018-12-18T17:30:15.009Z,75.47
2018-12-18T17:40:19.165Z,70.10
2018-12-18T17:50:23.252Z,68.93
2018-12-18T18:00:27.313Z,71.67
2018-12-18T18:10:31.505Z,74.53
2018-12-18T18:20:35.673Z,72.30
2018-12-18T18:30:39.848Z,76.60
2018-12-18T18:40:44.108Z,69.00
2018-12-18T18:50:48.187Z,67.37
2018-12-18T19:00:52.425Z,63.60
2018-12-18T19:10:56.800Z,59.50
2018-12-18T19:21:02.587Z,63.13
2018-12-18T19:31:07.325Z,62.87
2018-12-18T19:41:11.454Z,67.07
2018-12-18T19:51:15.604Z,59.43
2018-12-18T20:01:20.769Z,60.70
2018-12-18T20:11:24.896Z,57.80
2018-12-18T20:21:30.372Z,58.37
2018-12-18T20:31:34.855Z,53.20
2018-12-18T20:41:39.154Z,52.97
2018-12-18T20:51:43.253Z,53.17
2018-12-18T21:01:47.402Z,54.57
2018-12-18T21:11:51.706Z,53.33
2018-12-18T21:21:55.889Z,49.37
2018-12-18T21:32:00.221Z,50.63
2018-12-18T21:42:04.475Z,50.77
2018-12-18T21:52:08.619Z,50.30
2018-12-18T22:02:12.829Z,52.17
2018-12-18T22:12:18.203Z,51.07
2018-12-18T22:22:22.500Z,50.67
2018-12-18T22:32:26.735Z,47.13
2018-12-18T22:42:30.979Z,49.33
2018-12-18T22:52:35.112Z,48.80
2018-12-18T23:02:39.230Z,46.63
2018-12-18T23:12:43.444Z,45.30
2018-12-18T23:22:48.103Z,47.13
2018-12-18T23:32:52.197Z,44.10
2018-12-18T23:42:56.296Z,41.73
2018-12-18T23:53:00.477Z,43.43
